Time;durP1;ratioP1;P1;durP2;ratioP2;P2;SDS_P1;SDS_P2;PMS_P1;PMS_P2;Temp;Humidity;BMP_temperature;BMP_pressure;BME280_temperature;BME280_humidity;BME280_pressure;Samples;Min_cycle;Max_cycle;Signal;HPM_P1;HPM_P2
2021/08/31 00:02:22;;;;;;;;;;;;;;;20.12;56.44;100650.34;5119325;28;728;-47
2021/08/31 00:04:47;;;;;;;;;;;;;;;20.03;56.69;100652.13;5119204;28;807;-51
2021/08/31 00:07:13;;;;;;;;;;;;;;;20.22;56.00;100656.84;5118940;28;1980;-50
2021/08/31 00:09:38;;;;;;;;;;;;;;;20.12;56.14;100653.09;5118654;28;1154;-58
2021/08/31 00:12:04;;;;;;;;;;;;;;;20.27;55.72;100652.06;5118891;28;1005;-49
2021/08/31 00:14:29;;;;;;;;;;;;;;;20.24;55.83;100657.34;5118923;28;819;-51
2021/08/31 00:16:55;;;;;;;;;;;;;;;20.08;56.30;100662.31;5119259;28;796;-53
2021/08/31 00:19:20;;;;;;;;;;;;;;;20.23;55.88;100664.81;5118607;28;804;-51
2021/08/31 00:21:47;;;;;;;;;;;;;;;20.06;56.50;100665.34;5118989;28;883;-53
2021/08/31 00:24:13;;;;;;;;;;;;;;;20.06;56.55;100670.84;5118567;28;874;-52
2021/08/31 00:26:38;;;;;;;;;;;;;;;20.20;56.02;100665.41;5118583;28;1918;-52
2021/08/31 00:29:04;;;;;;;;;;;;;;;20.09;56.26;100673.03;5118645;28;846;-53
2021/08/31 00:31:29;;;;;;;;;;;;;;;20.04;56.26;100669.53;5118878;28;815;-50
2021/08/31 00:33:55;;;;;;;;;;;;;;;19.95;56.69;100675.72;5118624;28;843;-50
2021/08/31 00:36:20;;;;;;;;;;;;;;;20.13;56.33;100685.13;5118371;28;768;-50
2021/08/31 00:38:45;;;;;;;;;;;;;;;20.16;56.12;100679.00;5118307;28;831;-52
2021/08/31 00:41:11;;;;;;;;;;;;;;;20.37;55.85;100677.84;5118542;28;830;-53
2021/08/31 00:43:46;;;;;;;;;;;;;;;20.07;56.57;100672.50;5118194;28;970;-51
2021/08/31 00:46:12;;;;;;;;;;;;;;;20.28;56.23;100669.44;5118406;28;827;-51
2021/08/31 00:48:38;;;;;;;;;;;;;;;20.25;56.27;100670.03;5118338;28;1975;-48
2021/08/31 00:51:03;;;;;;;;;;;;;;;20.25;56.32;100670.03;5117736;28;794;-51
2021/08/31 00:53:29;;;;;;;;;;;;;;;20.35;55.82;100667.91;5118093;28;775;-51
2021/08/31 00:55:55;;;;;;;;;;;;;;;20.34;56.17;100679.25;5099840;28;991;-52
2021/08/31 00:58:20;;;;;;;;;;;;;;;20.13;56.42;100674.09;5117814;28;985;-52
2021/08/31 01:00:45;;;;;;;;;;;;;;;20.00;55.23;100677.59;5117698;28;827;-51
2021/08/31 01:03:11;;;;;;;;;;;;;;;19.71;54.05;100672.19;5117925;28;791;-49
2021/08/31 01:05:36;;;;;;;;;;;;;;;19.34;53.16;100680.09;5118107;28;794;-52
2021/08/31 01:08:02;;;;;;;;;;;;;;;19.05;52.00;100675.47;5117690;28;1890;-48
2021/08/31 01:10:28;;;;;;;;;;;;;;;18.88;51.20;100678.69;5117813;28;798;-52
2021/08/31 01:12:53;;;;;;;;;;;;;;;18.66;50.87;100681.91;5117668;28;954;-56
2021/08/31 01:15:25;;;;;;;;;;;;;;;18.55;50.41;100680.34;5117553;28;831;-51
2021/08/31 01:17:51;;;;;;;;;;;;;;;18.42;50.27;100673.59;5117899;28;807;-50
2021/08/31 01:20:20;;;;;;;;;;;;;;;18.45;50.49;100681.28;5117726;28;772;-49
2021/08/31 01:22:58;;;;;;;;;;;;;;;18.63;51.54;100676.97;5117686;28;811;-50
2021/08/31 01:25:23;;;;;;;;;;;;;;;18.77;52.66;100677.13;5117782;28;740;-51
2021/08/31 01:27:52;;;;;;;;;;;;;;;18.94;53.19;100684.97;5116824;28;1913;-51
2021/08/31 01:30:17;;;;;;;;;;;;;;;19.04;54.10;100679.38;5117429;28;763;-51
2021/08/31 01:32:46;;;;;;;;;;;;;;;19.14;55.48;100675.69;5117851;28;856;-52
2021/08/31 01:35:12;;;;;;;;;;;;;;;19.41;56.59;100677.00;5117374;28;807;-50
2021/08/31 01:37:37;;;;;;;;;;;;;;;19.66;57.80;100678.59;5117594;28;771;-49
2021/08/31 01:40:03;;;;;;;;;;;;;;;20.03;58.04;100674.22;5117256;28;735;-52
2021/08/31 01:42:28;;;;;;;;;;;;;;;19.99;59.16;100673.19;5116175;28;990;-48
2021/08/31 01:44:54;;;;;;;;;;;;;;;20.57;57.99;100677.50;5117132;28;743;-58
2021/08/31 01:47:19;;;;;;;;;;;;;;;20.37;59.30;100673.16;5117297;28;1910;-53
2021/08/31 01:49:45;;;;;;;;;;;;;;;20.49;58.91;100681.75;5117310;28;806;-50
2021/08/31 01:52:10;;;;;;;;;;;;;;;20.21;57.64;100686.38;5116908;28;740;-53
2021/08/31 01:54:36;;;;;;;;;;;;;;;19.65;55.82;100686.03;5117154;28;826;-51
2021/08/31 01:57:01;;;;;;;;;;;;;;;19.13;53.30;100685.03;5117022;28;1056;-50
2021/08/31 01:59:27;;;;;;;;;;;;;;;18.64;50.91;100679.44;5098703;28;1288;-51
2021/08/31 02:01:52;;;;;;;;;;;;;;;18.17;49.30;100691.13;5117175;28;1555;-49
2021/08/31 02:04:18;;;;;;;;;;;;;;;18.10;49.67;100681.28;5117079;28;779;-49
2021/08/31 02:06:43;;;;;;;;;;;;;;;18.50;53.09;100683.19;5116590;28;1910;-52
2021/08/31 02:09:09;;;;;;;;;;;;;;;19.00;55.07;100681.06;5116752;28;1216;-50
2021/08/31 02:11:34;;;;;;;;;;;;;;;19.25;56.91;100692.88;5116455;28;1005;-48
2021/08/31 02:14:00;;;;;;;;;;;;;;;19.59;58.13;100691.94;5116757;28;776;-50
2021/08/31 02:16:25;;;;;;;;;;;;;;;19.93;58.34;100691.75;5116898;28;831;-52
2021/08/31 02:18:51;;;;;;;;;;;;;;;19.99;59.13;100690.56;5116831;28;752;-49
2021/08/31 02:21:16;;;;;;;;;;;;;;;20.21;59.28;100691.88;5116344;28;826;-50
2021/08/31 02:23:44;;;;;;;;;;;;;;;20.35;59.79;100694.72;5117083;28;720;-52
2021/08/31 02:26:10;;;;;;;;;;;;;;;20.68;59.13;100690.03;5116955;28;752;-52
2021/08/31 02:28:38;;;;;;;;;;;;;;;20.70;59.46;100684.19;5116413;28;1976;-49
2021/08/31 02:31:03;;;;;;;;;;;;;;;20.74;59.73;100688.00;5116477;28;779;-53
2021/08/31 02:33:29;;;;;;;;;;;;;;;20.46;59.41;100679.59;5116653;28;748;-52
2021/08/31 02:35:54;;;;;;;;;;;;;;;20.02;56.90;100688.31;5116883;28;854;-50
2021/08/31 02:38:20;;;;;;;;;;;;;;;19.48;54.00;100681.03;5116567;28;798;-51
2021/08/31 02:40:45;;;;;;;;;;;;;;;19.10;51.19;100683.69;5116786;28;831;-58
2021/08/31 02:43:11;;;;;;;;;;;;;;;18.46;49.90;100678.22;5116029;28;953;-51
2021/08/31 02:45:36;;;;;;;;;;;;;;;18.22;48.79;100688.34;5116970;28;708;-51
2021/08/31 02:48:04;;;;;;;;;;;;;;;18.35;49.17;100675.84;5116737;28;1913;-50
2021/08/31 02:50:30;;;;;;;;;;;;;;;18.65;52.89;100683.03;5116241;28;818;-52
2021/08/31 02:52:55;;;;;;;;;;;;;;;19.08;55.15;100694.19;5116448;28;865;-51
2021/08/31 02:55:21;;;;;;;;;;;;;;;19.36;57.04;100693.59;5117984;28;830;-52
2021/08/31 02:57:49;;;;;;;;;;;;;;;19.56;58.30;100695.25;5119523;28;954;-51
2021/08/31 03:00:21;;;;;;;;;;;;;;;19.86;58.99;100696.81;5120785;28;871;-58
2021/08/31 03:02:46;;;;;;;;;;;;;;;20.15;59.15;100698.63;5120614;28;828;-58
2021/08/31 03:05:12;;;;;;;;;;;;;;;20.29;59.70;100706.97;5120554;28;739;-58
2021/08/31 03:07:37;;;;;;;;;;;;;;;20.34;60.22;100704.09;5120215;28;1909;-56
2021/08/31 03:10:03;;;;;;;;;;;;;;;20.52;60.26;100703.28;5120212;28;838;-58
2021/08/31 03:12:28;;;;;;;;;;;;;;;20.58;60.45;100703.16;5119129;28;926;-53
2021/08/31 03:14:54;;;;;;;;;;;;;;;20.74;60.03;100704.56;5120289;28;767;-57
2021/08/31 03:17:20;;;;;;;;;;;;;;;20.52;59.40;100703.28;5120187;28;870;-58
2021/08/31 03:19:45;;;;;;;;;;;;;;;20.02;56.98;100715.94;5120042;28;779;-56
2021/08/31 03:22:11;;;;;;;;;;;;;;;19.51;53.88;100706.38;5119998;28;747;-59
2021/08/31 03:24:36;;;;;;;;;;;;;;;18.97;51.30;100720.19;5119670;28;783;-57
2021/08/31 03:27:04;;;;;;;;;;;;;;;18.56;49.60;100721.38;5119464;28;1910;-53
2021/08/31 03:29:30;;;;;;;;;;;;;;;18.53;47.59;100727.47;5120232;28;747;-58
2021/08/31 03:31:56;;;;;;;;;;;;;;;18.10;48.42;100727.22;5119903;28;850;-60
2021/08/31 03:34:21;;;;;;;;;;;;;;;18.37;51.88;100726.78;5119626;28;851;-51
2021/08/31 03:36:47;;;;;;;;;;;;;;;18.86;54.67;100730.50;5119008;28;1498;-48
2021/08/31 03:39:12;;;;;;;;;;;;;;;19.21;56.35;100731.28;5103886;28;1254;-55
2021/08/31 03:41:38;;;;;;;;;;;;;;;19.41;57.99;100730.19;5116856;28;835;-55
2021/08/31 03:44:05;;;;;;;;;;;;;;;19.82;58.62;100729.72;5119081;28;851;-60
2021/08/31 03:46:30;;;;;;;;;;;;;;;19.93;59.56;100735.09;5119600;28;886;-58
2021/08/31 03:48:55;;;;;;;;;;;;;;;20.17;59.56;100727.56;5119213;28;1914;-59
2021/08/31 03:51:21;;;;;;;;;;;;;;;20.31;59.89;100733.16;5119214;28;795;-59
2021/08/31 03:53:46;;;;;;;;;;;;;;;20.39;60.38;100734.41;5117008;28;1340;-57
2021/08/31 03:56:12;;;;;;;;;;;;;;;20.45;60.50;100735.97;5091328;28;879;-47
2021/08/31 03:58:37;;;;;;;;;;;;;;;20.50;60.63;100737.84;5118192;28;998;-58
2021/08/31 04:01:03;;;;;;;;;;;;;;;20.48;60.03;100738.13;5119063;28;1210;-59
2021/08/31 04:03:31;;;;;;;;;;;;;;;20.32;57.76;100736.72;5118703;28;1222;-50
2021/08/31 04:05:59;;;;;;;;;;;;;;;19.71;54.97;100732.88;5118043;28;1214;-59
2021/08/31 04:08:25;;;;;;;;;;;;;;;19.11;52.82;100743.22;5100658;28;1897;-58
2021/08/31 04:10:50;;;;;;;;;;;;;;;18.71;50.60;100736.94;5118764;28;1225;-46
2021/08/31 04:13:18;;;;;;;;;;;;;;;18.27;48.79;100741.44;5118300;28;994;-50
2021/08/31 04:15:44;;;;;;;;;;;;;;;18.17;47.50;100735.16;5118871;28;830;-60
2021/08/31 04:18:10;;;;;;;;;;;;;;;18.16;47.69;100741.78;5118876;28;882;-48
2021/08/31 04:20:35;;;;;;;;;;;;;;;18.53;51.40;100748.69;5118889;28;855;-61
2021/08/31 04:23:01;;;;;;;;;;;;;;;18.84;54.60;100748.41;5115378;28;899;-52
2021/08/31 04:25:26;;;;;;;;;;;;;;;19.14;56.65;100752.84;5116985;28;1001;-52
2021/08/31 04:27:52;;;;;;;;;;;;;;;19.26;58.45;100749.69;5112181;28;1972;-51
2021/08/31 04:30:17;;;;;;;;;;;;;;;19.70;58.59;100756.91;5079628;28;960;-55
2021/08/31 04:32:42;;;;;;;;;;;;;;;19.79;59.58;100757.88;5097844;28;744;-55
2021/08/31 04:35:08;;;;;;;;;;;;;;;20.03;59.82;100759.78;5097902;28;803;-52
2021/08/31 04:37:34;;;;;;;;;;;;;;;20.40;59.36;100765.59;5098067;28;744;-49
2021/08/31 04:39:59;;;;;;;;;;;;;;;20.43;59.70;100765.84;5097972;28;775;-55
2021/08/31 04:42:25;;;;;;;;;;;;;;;20.51;59.96;100772.63;5106373;28;828;-53
2021/08/31 04:44:50;;;;;;;;;;;;;;;20.60;60.34;100770.81;5100057;28;803;-49
2021/08/31 04:47:17;;;;;;;;;;;;;;;20.85;59.72;100774.31;5118128;28;1886;-48
2021/08/31 04:49:42;;;;;;;;;;;;;;;20.76;60.03;100771.44;5117940;28;815;-49
2021/08/31 04:52:08;;;;;;;;;;;;;;;20.31;60.04;100777.34;5118097;28;760;-50
2021/08/31 04:54:33;;;;;;;;;;;;;;;20.02;57.86;100774.72;5115655;28;838;-53
2021/08/31 04:56:59;;;;;;;;;;;;;;;19.63;55.27;100773.00;5117566;28;903;-54
2021/08/31 04:59:25;;;;;;;;;;;;;;;19.02;53.25;100775.28;5116552;28;828;-53
2021/08/31 05:01:50;;;;;;;;;;;;;;;18.78;50.60;100778.75;5118141;28;1178;-54
2021/08/31 05:04:16;;;;;;;;;;;;;;;18.31;49.24;100769.19;5117684;28;740;-51
2021/08/31 05:06:41;;;;;;;;;;;;;;;18.03;48.07;100776.25;5110369;28;820;-52
2021/08/31 05:09:06;;;;;;;;;;;;;;;18.04;49.54;100775.16;5106055;28;1910;-53
2021/08/31 05:11:32;;;;;;;;;;;;;;;18.58;52.64;100777.00;5117191;28;993;-53
2021/08/31 05:13:57;;;;;;;;;;;;;;;19.01;55.10;100783.84;5117395;28;798;-47
2021/08/31 05:16:23;;;;;;;;;;;;;;;19.38;56.60;100780.44;5117275;28;919;-58
2021/08/31 05:18:48;;;;;;;;;;;;;;;19.54;58.10;100777.50;5097466;28;915;-54
2021/08/31 05:21:14;;;;;;;;;;;;;;;19.74;58.78;100776.41;5116396;28;1120;-58
2021/08/31 05:23:39;;;;;;;;;;;;;;;19.83;59.59;100781.03;5117356;28;744;-50
2021/08/31 05:26:05;;;;;;;;;;;;;;;19.98;60.11;100776.44;5117334;28;840;-50
2021/08/31 05:28:31;;;;;;;;;;;;;;;20.30;59.97;100781.22;5116766;28;1971;-47
2021/08/31 05:30:57;;;;;;;;;;;;;;;20.40;60.18;100769.19;5117465;28;866;-51
2021/08/31 05:33:25;;;;;;;;;;;;;;;20.47;60.22;100780.69;5101870;28;824;-47
2021/08/31 05:35:54;;;;;;;;;;;;;;;20.63;60.09;100775.72;5096547;28;779;-52
2021/08/31 05:38:19;;;;;;;;;;;;;;;20.60;60.52;100781.06;5096959;28;791;-48
2021/08/31 05:40:45;;;;;;;;;;;;;;;20.69;60.33;100768.19;5096791;28;811;-53
2021/08/31 05:43:10;;;;;;;;;;;;;;;20.51;59.08;100767.91;5112835;28;922;-53
2021/08/31 05:45:36;;;;;;;;;;;;;;;19.94;56.86;100765.16;5114488;28;860;-53
2021/08/31 05:48:01;;;;;;;;;;;;;;;19.48;53.79;100763.75;5116679;28;1921;-59
2021/08/31 05:50:27;;;;;;;;;;;;;;;18.99;51.15;100753.81;5113105;28;879;-50
2021/08/31 05:52:52;;;;;;;;;;;;;;;18.34;49.75;100760.38;5116435;28;875;-49
2021/08/31 05:55:18;;;;;;;;;;;;;;;18.34;48.34;100759.53;5116080;28;891;-53
2021/08/31 05:57:46;;;;;;;;;;;;;;;18.49;50.47;100764.94;5114135;28;934;-54
2021/08/31 06:00:12;;;;;;;;;;;;;;;18.94;53.59;100762.13;5115723;28;876;-53
2021/08/31 06:02:46;;;;;;;;;;;;;;;19.21;56.33;100766.25;5116811;28;799;-51
2021/08/31 06:05:12;;;;;;;;;;;;;;;19.49;57.88;100764.59;5116729;28;800;-53
2021/08/31 06:07:40;;;;;;;;;;;;;;;19.78;58.72;100755.41;5116697;28;1988;-51
2021/08/31 06:10:06;;;;;;;;;;;;;;;20.01;59.05;100770.31;5113275;28;958;-53
2021/08/31 06:12:32;;;;;;;;;;;;;;;20.21;59.30;100760.91;5087152;28;1078;-53
2021/08/31 06:15:03;;;;;;;;;;;;;;;20.38;59.40;100759.56;5115972;28;911;-48
2021/08/31 06:17:30;;;;;;;;;;;;;;;20.58;59.68;100766.69;5117243;28;740;-51
2021/08/31 06:19:57;;;;;;;;;;;;;;;20.67;59.90;100764.91;5117304;28;788;-51
2021/08/31 06:22:23;;;;;;;;;;;;;;;20.55;60.26;100764.53;5116396;28;946;-53
2021/08/31 06:24:48;;;;;;;;;;;;;;;20.24;59.27;100765.03;5115235;28;879;-52
2021/08/31 06:27:14;;;;;;;;;;;;;;;19.82;56.62;100765.59;5115236;28;1906;-54
2021/08/31 06:29:39;;;;;;;;;;;;;;;19.38;54.38;100755.59;5118748;28;850;-54
2021/08/31 06:32:05;;;;;;;;;;;;;;;18.93;52.08;100757.75;5121062;28;814;-51
2021/08/31 06:34:30;;;;;;;;;;;;;;;18.43;50.38;100758.66;5121085;28;759;-51
2021/08/31 06:36:56;;;;;;;;;;;;;;;18.34;48.51;100765.06;5108235;28;898;-54
2021/08/31 06:39:21;;;;;;;;;;;;;;;18.26;48.49;100761.00;5100243;28;782;-50
2021/08/31 06:41:47;;;;;;;;;;;;;;;18.41;51.56;100758.13;5104385;28;959;-54
2021/08/31 06:44:12;;;;;;;;;;;;;;;18.99;54.32;100767.59;5120704;28;850;-52
2021/08/31 06:46:38;;;;;;;;;;;;;;;19.13;56.93;100768.53;5120262;28;747;-59
2021/08/31 06:49:03;;;;;;;;;;;;;;;19.56;58.20;100770.56;5119654;28;1988;-50
2021/08/31 06:51:29;;;;;;;;;;;;;;;19.87;58.72;100763.91;5120570;28;748;-51
2021/08/31 06:53:54;;;;;;;;;;;;;;;19.99;59.74;100772.53;5120150;28;968;-58
2021/08/31 06:56:22;;;;;;;;;;;;;;;20.23;59.62;100763.38;5118608;28;868;-53
2021/08/31 06:58:48;;;;;;;;;;;;;;;20.20;60.64;100769.50;5099862;28;866;-52
2021/08/31 07:01:13;;;;;;;;;;;;;;;20.39;60.23;100767.56;5098994;28;860;-48
2021/08/31 07:03:39;;;;;;;;;;;;;;;20.47;58.94;100766.06;5104808;28;935;-47
2021/08/31 07:06:04;;;;;;;;;;;;;;;19.93;57.00;100770.97;5119655;28;887;-52
2021/08/31 07:08:30;;;;;;;;;;;;;;;19.21;54.71;100772.63;5119912;28;1972;-46
2021/08/31 07:10:56;;;;;;;;;;;;;;;18.89;51.89;100767.69;5118989;28;946;-56
2021/08/31 07:13:22;;;;;;;;;;;;;;;18.71;49.81;100770.00;5118301;28;973;-57
2021/08/31 07:15:48;;;;;;;;;;;;;;;18.22;49.13;100760.72;5117497;28;859;-52
2021/08/31 07:18:13;;;;;;;;;;;;;;;18.26;48.55;100767.31;5117794;28;1550;-48
2021/08/31 07:20:39;;;;;;;;;;;;;;;18.55;52.49;100773.97;5099888;28;787;-52
2021/08/31 07:23:04;;;;;;;;;;;;;;;19.09;55.61;100773.00;5109197;28;1209;-53
2021/08/31 07:25:30;;;;;;;;;;;;;;;19.46;57.33;100770.66;5107672;28;836;-50
2021/08/31 07:27:55;;;;;;;;;;;;;;;19.66;58.81;100770.44;5112298;28;1973;-58
2021/08/31 07:30:21;;;;;;;;;;;;;;;19.80;59.35;100765.06;5120200;28;808;-52
2021/08/31 07:32:46;;;;;;;;;;;;;;;20.15;59.24;100768.44;5119498;28;886;-59
2021/08/31 07:35:12;;;;;;;;;;;;;;;20.27;59.76;100758.91;5119978;28;779;-48
2021/08/31 07:37:37;;;;;;;;;;;;;;;20.26;60.18;100748.97;5119759;28;831;-48
2021/08/31 07:40:03;;;;;;;;;;;;;;;20.40;60.62;100763.69;5119006;28;775;-49
2021/08/31 07:42:28;;;;;;;;;;;;;;;20.70;59.94;100769.84;5118578;28;1013;-54
2021/08/31 07:44:54;;;;;;;;;;;;;;;20.79;58.95;100759.75;5115705;27;1209;-53
2021/08/31 07:47:19;;;;;;;;;;;;;;;20.21;58.80;100760.91;5107107;28;1911;-55
2021/08/31 07:49:45;;;;;;;;;;;;;;;19.85;56.65;100766.13;5119133;28;938;-59
2021/08/31 07:52:10;;;;;;;;;;;;;;;19.47;54.34;100759.38;5119601;28;859;-54
2021/08/31 07:54:36;;;;;;;;;;;;;;;19.08;52.11;100754.00;5118272;28;949;-59
2021/08/31 07:57:01;;;;;;;;;;;;;;;18.75;50.33;100746.28;5119044;28;1176;-57
2021/08/31 07:59:27;;;;;;;;;;;;;;;18.74;48.24;100752.91;5119620;28;867;-52
2021/08/31 08:01:52;;;;;;;;;;;;;;;18.13;48.92;100744.00;5118903;28;1099;-53
2021/08/31 08:04:18;;;;;;;;;;;;;;;18.66;52.67;100748.00;5119451;28;800;-59
2021/08/31 08:06:45;;;;;;;;;;;;;;;19.21;55.68;100746.97;5118181;28;850;-59
2021/08/31 08:09:11;;;;;;;;;;;;;;;19.60;58.00;100741.28;5118518;28;1913;-53
2021/08/31 08:11:37;;;;;;;;;;;;;;;20.04;58.63;100742.13;5118993;28;981;-56
2021/08/31 08:14:04;;;;;;;;;;;;;;;20.32;59.39;100736.72;5118855;28;775;-53
2021/08/31 08:16:30;;;;;;;;;;;;;;;20.35;60.11;100736.94;5118701;28;787;-54
2021/08/31 08:18:57;;;;;;;;;;;;;;;20.48;60.28;100729.84;5118361;28;959;-48
2021/08/31 08:21:23;;;;;;;;;;;;;;;20.45;60.86;100737.91;5118798;28;767;-49
2021/08/31 08:23:49;;;;;;;;;;;;;;;20.43;59.47;100729.94;5118182;28;887;-46
2021/08/31 08:26:16;;;;;;;;;;;;;;;19.93;57.57;100724.06;5117977;28;910;-47
2021/08/31 08:28:42;;;;;;;;;;;;;;;19.71;55.10;100721.84;5117822;28;1905;-59
2021/08/31 08:31:07;;;;;;;;;;;;;;;19.44;52.76;100715.81;5116908;28;926;-52
2021/08/31 08:33:33;;;;;;;;;;;;;;;19.03;52.02;100710.78;5118276;28;887;-54
2021/08/31 08:36:03;;;;;;;;;;;;;;;18.74;50.96;100719.84;5118214;28;947;-49
2021/08/31 08:38:29;;;;;;;;;;;;;;;18.62;49.96;100709.22;5099736;28;1372;-51
2021/08/31 08:40:56;;;;;;;;;;;;;;;18.63;50.56;100710.88;5117928;28;938;-58
2021/08/31 08:43:22;;;;;;;;;;;;;;;18.86;52.72;100710.38;5118058;28;1017;-52
2021/08/31 08:45:49;;;;;;;;;;;;;;;19.18;54.14;100708.97;5116662;28;891;-52
2021/08/31 08:48:18;;;;;;;;;;;;;;;19.31;56.06;100700.00;5117565;28;1913;-49
2021/08/31 08:50:45;;;;;;;;;;;;;;;19.54;57.25;100705.78;5117494;28;954;-52
2021/08/31 08:53:11;;;;;;;;;;;;;;;19.72;58.20;100702.22;5099045;28;891;-53
2021/08/31 08:55:37;;;;;;;;;;;;;;;19.92;58.70;100700.34;5117939;28;827;-52
2021/08/31 08:58:03;;;;;;;;;;;;;;;20.03;58.87;100707.34;5116657;28;871;-53
2021/08/31 09:00:47;;;;;;;;;;;;;;;20.08;59.59;100701.75;5117614;28;891;-53
2021/08/31 09:03:22;;;;;;;;;;;;;;;20.37;58.98;100703.53;5117533;28;875;-51
2021/08/31 09:05:47;;;;;;;;;;;;;;;20.44;59.04;100706.72;5117679;28;1038;-51
2021/08/31 09:08:13;;;;;;;;;;;;;;;20.10;59.04;100702.25;5116933;28;1909;-54
2021/08/31 09:10:42;;;;;;;;;;;;;;;19.91;58.15;100694.00;5116655;28;854;-51
2021/08/31 09:13:07;;;;;;;;;;;;;;;19.80;56.73;100687.81;5117245;28;994;-49
2021/08/31 09:15:35;;;;;;;;;;;;;;;19.58;55.86;100684.78;5117556;28;799;-55
2021/08/31 09:18:03;;;;;;;;;;;;;;;19.54;54.34;100690.06;5117826;28;779;-50
2021/08/31 09:20:29;;;;;;;;;;;;;;;19.40;53.88;100678.91;5117937;28;838;-57
2021/08/31 09:22:55;;;;;;;;;;;;;;;19.22;53.40;100685.22;5116078;28;832;-56
2021/08/31 09:25:22;;;;;;;;;;;;;;;19.04;53.51;100687.63;5116918;28;859;-58
2021/08/31 09:27:50;;;;;;;;;;;;;;;18.99;53.28;100679.41;5098407;28;2005;-51
2021/08/31 09:30:16;;;;;;;;;;;;;;;19.04;53.03;100676.59;5116924;28;864;-58
2021/08/31 09:32:58;;;;;;;;;;;;;;;18.90;53.08;100681.16;5117613;28;823;-58
2021/08/31 09:35:23;;;;;;;;;;;;;;;18.95;53.00;100678.34;5115590;28;901;-56
2021/08/31 09:37:51;;;;;;;;;;;;;;;18.99;52.90;100679.41;5116578;28;848;-57
2021/08/31 09:40:16;;;;;;;;;;;;;;;18.80;53.18;100677.38;5117172;28;883;-50
2021/08/31 09:42:55;;;;;;;;;;;;;;;18.86;53.09;100669.03;5116419;28;977;-48
2021/08/31 09:45:21;;;;;;;;;;;;;;;19.17;53.76;100674.25;5116846;28;938;-52
2021/08/31 09:47:47;;;;;;;;;;;;;;;19.32;56.24;100672.13;5115743;28;1901;-48
2021/08/31 09:50:12;;;;;;;;;;;;;;;19.72;58.43;100669.13;5116846;28;800;-52
2021/08/31 09:52:38;;;;;;;;;;;;;;;20.10;59.76;100674.66;5098831;28;1264;-52
2021/08/31 09:55:04;;;;;;;;;;;;;;;20.56;59.58;100664.00;5117286;28;799;-49
2021/08/31 09:57:37;;;;;;;;;;;;;;;20.62;60.39;100662.75;5116553;28;970;-58
2021/08/31 10:00:07;;;;;;;;;;;;;;;20.52;59.77;100664.59;5115790;28;847;-53
2021/08/31 10:02:33;;;;;;;;;;;;;;;20.11;58.40;100662.50;5117646;28;840;-52
2021/08/31 10:04:59;;;;;;;;;;;;;;;19.86;56.07;100651.88;5116659;28;859;-58
2021/08/31 10:07:24;;;;;;;;;;;;;;;19.61;53.73;100656.59;5116778;28;1975;-53
2021/08/31 10:09:50;;;;;;;;;;;;;;;19.04;52.77;100649.06;5116954;28;932;-58
2021/08/31 10:12:17;;;;;;;;;;;;;;;18.88;51.16;100650.34;5116656;28;1009;-57
2021/08/31 10:14:43;;;;;;;;;;;;;;;18.55;50.18;100653.66;5097979;28;1284;-51
2021/08/31 10:17:10;;;;;;;;;;;;;;;18.65;49.72;100647.22;5116629;28;779;-53
2021/08/31 10:19:35;;;;;;;;;;;;;;;18.65;51.71;100647.22;5116474;28;891;-58
2021/08/31 10:22:01;;;;;;;;;;;;;;;18.85;54.15;100653.66;5098187;28;879;-52
2021/08/31 10:24:26;;;;;;;;;;;;;;;19.21;55.89;100647.72;5097530;28;912;-58
2021/08/31 10:26:52;;;;;;;;;;;;;;;19.53;56.72;100636.03;5096118;28;950;-54
2021/08/31 10:29:20;;;;;;;;;;;;;;;19.72;57.62;100644.28;5116559;28;1968;-50
2021/08/31 10:31:46;;;;;;;;;;;;;;;19.91;57.79;100643.50;5116784;28;760;-51
2021/08/31 10:34:30;;;;;;;;;;;;;;;19.93;58.61;100641.28;5116867;28;822;-58
2021/08/31 10:37:02;;;;;;;;;;;;;;;20.18;58.36;100632.56;5116269;28;882;-57
2021/08/31 10:39:46;;;;;;;;;;;;;;;20.05;59.40;100638.88;5112846;28;848;-58
2021/08/31 10:42:12;;;;;;;;;;;;;;;20.21;59.17;100627.59;5116296;28;978;-54
2021/08/31 10:44:41;;;;;;;;;;;;;;;20.43;58.62;100633.25;5098147;28;1432;-50
2021/08/31 10:47:06;;;;;;;;;;;;;;;20.04;58.59;100631.72;5116690;28;1914;-57
2021/08/31 10:49:32;;;;;;;;;;;;;;;20.23;56.62;100622.56;5115833;28;896;-48
2021/08/31 10:52:04;;;;;;;;;;;;;;;19.76;56.11;100626.03;5115115;28;824;-45
2021/08/31 10:54:41;;;;;;;;;;;;;;;19.56;55.10;100615.28;5116644;28;748;-46
2021/08/31 10:57:27;;;;;;;;;;;;;;;19.40;54.51;100621.00;5115246;28;1095;-51
2021/08/31 10:59:52;;;;;;;;;;;;;;;19.19;54.25;100617.72;5115686;28;1669;-48
2021/08/31 11:02:59;;;;;;;;;;;;;;;19.08;53.74;100625.31;5114683;28;819;-49
2021/08/31 11:05:25;;;;;;;;;;;;;;;19.19;53.15;100616.91;5017229;28;1276;-59
2021/08/31 11:08:00;;;;;;;;;;;;;;;19.05;53.13;100620.34;5013973;28;1914;-48
2021/08/31 11:10:29;;;;;;;;;;;;;;;18.95;53.35;100620.50;5059136;28;935;-57
2021/08/31 11:12:55;;;;;;;;;;;;;;;18.95;52.97;100615.78;5109072;28;962;-50
2021/08/31 11:15:21;;;;;;;;;;;;;;;18.96;52.67;100611.13;5116618;28;807;-58
2021/08/31 11:17:48;;;;;;;;;;;;;;;18.95;52.57;100606.72;5119539;28;803;-47
2021/08/31 11:20:20;;;;;;;;;;;;;;;18.80;52.76;100614.03;5119690;28;771;-50
2021/08/31 11:22:46;;;;;;;;;;;;;;;18.79;52.77;100620.63;5120196;28;830;-52
2021/08/31 11:25:11;;;;;;;;;;;;;;;18.87;52.61;100615.59;5120199;28;811;-49
2021/08/31 11:27:52;;;;;;;;;;;;;;;18.80;53.45;100613.19;5119461;28;1917;-56
2021/08/31 11:30:17;;;;;;;;;;;;;;;19.07;54.81;100614.53;5120134;28;763;-51
2021/08/31 11:32:43;;;;;;;;;;;;;;;19.63;57.07;100616.56;5119858;28;826;-45
2021/08/31 11:35:08;;;;;;;;;;;;;;;19.91;58.49;100616.75;5119559;28;847;-51
2021/08/31 11:37:47;;;;;;;;;;;;;;;20.26;59.40;100610.91;5101692;28;1364;-52
2021/08/31 11:40:12;;;;;;;;;;;;;;;20.71;59.24;100610.44;5119939;28;767;-50
2021/08/31 11:42:51;;;;;;;;;;;;;;;20.63;59.31;100611.91;5118678;28;982;-46
2021/08/31 11:45:16;;;;;;;;;;;;;;;20.18;57.13;100602.19;5119588;28;827;-58
2021/08/31 11:47:42;;;;;;;;;;;;;;;19.61;54.82;100613.28;5119168;28;1909;-53
2021/08/31 11:50:07;;;;;;;;;;;;;;;19.18;52.17;100598.72;5119262;28;830;-56
2021/08/31 11:52:33;;;;;;;;;;;;;;;18.70;50.75;100589.31;5119378;28;767;-47
2021/08/31 11:54:58;;;;;;;;;;;;;;;18.44;49.10;100592.34;5119154;28;832;-51
2021/08/31 11:57:30;;;;;;;;;;;;;;;18.17;48.60;100594.81;5118394;28;938;-53
2021/08/31 11:59:56;;;;;;;;;;;;;;;18.11;48.96;100589.34;5119561;28;740;-58
2021/08/31 12:02:24;;;;;;;;;;;;;;;18.67;53.69;100587.16;5118837;28;791;-51
2021/08/31 12:04:53;;;;;;;;;;;;;;;19.38;56.90;100592.94;5118986;28;811;-58
2021/08/31 12:07:18;;;;;;;;;;;;;;;19.86;59.14;100596.69;5119239;28;1906;-51
2021/08/31 12:09:44;;;;;;;;;;;;;;;20.35;60.03;100584.25;5100054;28;975;-51
2021/08/31 12:12:10;;;;;;;;;;;;;;;20.66;60.37;100592.78;5099649;28;1041;-45
2021/08/31 12:14:35;;;;;;;;;;;;;;;20.94;60.70;100578.19;5119026;28;786;-49
2021/08/31 12:17:00;;;;;;;;;;;;;;;20.83;60.29;100574.78;5118789;28;874;-55
2021/08/31 12:19:26;;;;;;;;;;;;;;;20.17;58.55;100575.72;5118938;28;748;-59
2021/08/31 12:22:11;;;;;;;;;;;;;;;19.68;56.25;100577.03;5100259;28;791;-51
2021/08/31 12:24:37;;;;;;;;;;;;;;;19.52;53.36;100581.13;5118672;28;871;-54
2021/08/31 12:27:06;;;;;;;;;;;;;;;19.13;51.91;100567.34;5117645;28;1922;-54
2021/08/31 12:29:44;;;;;;;;;;;;;;;18.74;51.25;100568.34;5109384;28;1094;-57
2021/08/31 12:32:09;;;;;;;;;;;;;;;18.67;50.00;100567.88;5098021;28;839;-51
2021/08/31 12:34:35;;;;;;;;;;;;;;;18.56;50.15;100564.41;5097678;28;791;-51
2021/08/31 12:37:00;;;;;;;;;;;;;;;18.56;50.70;100569.09;5097983;28;794;-50
2021/08/31 12:39:28;;;;;;;;;;;;;;;18.62;51.79;100556.91;5080157;28;859;-58
2021/08/31 12:41:53;;;;;;;;;;;;;;;18.54;52.68;100563.09;5102532;28;970;-52
2021/08/31 12:44:20;;;;;;;;;;;;;;;18.79;54.00;100571.03;5118255;28;819;-49
2021/08/31 12:46:46;;;;;;;;;;;;;;;19.06;55.08;100558.63;5118389;28;902;-48
2021/08/31 12:49:13;;;;;;;;;;;;;;;19.25;56.50;100560.56;5099572;28;1910;-49
2021/08/31 12:51:42;;;;;;;;;;;;;;;19.47;57.12;100548.97;5118151;28;874;-48
2021/08/31 12:54:24;;;;;;;;;;;;;;;19.51;57.70;100555.50;5118439;28;775;-48